Time;durP1;ratioP1;P1;durP2;ratioP2;P2;SDS_P1;SDS_P2;PMS_P1;PMS_P2;Temp;Humidity;BMP_temperature;BMP_pressure;BME280_temperature;BME280_humidity;BME280_pressure;Samples;Min_cycle;Max_cycle;Signal;HPM_P1;HPM_P2
2023/04/22 00:02:06;;;;;;;11.18;9.10;;;;;;;;;;4993862;28;20169;-49
2023/04/22 00:04:32;;;;;;;12.68;8.07;;;;;;;;;;4993523;28;20188;-49
2023/04/22 00:06:58;;;;;;;11.10;8.15;;;;;;;;;;4993173;28;20173;-49
2023/04/22 00:09:24;;;;;;;11.07;8.32;;;;;;;;;;4993245;28;20201;-49
2023/04/22 00:11:50;;;;;;;11.57;7.15;;;;;;;;;;4991722;28;20578;-49
2023/04/22 00:14:17;;;;;;;8.82;7.35;;;;;;;;;;4994038;28;20469;-49
2023/04/22 00:16:42;;;;;;;7.60;6.40;;;;;;;;;;4993364;28;20189;-49
2023/04/22 00:19:08;;;;;;;9.38;6.15;;;;;;;;;;4993826;28;20212;-49
2023/04/22 00:21:35;;;;;;;9.68;6.35;;;;;;;;;;4996801;28;20256;-49
2023/04/22 00:24:01;;;;;;;8.85;6.28;;;;;;;;;;4997546;28;20184;-49
2023/04/22 00:26:27;;;;;;;8.45;6.13;;;;;;;;;;4997232;28;20185;-49
2023/04/22 00:28:53;;;;;;;9.60;5.68;;;;;;;;;;4996726;28;20177;-50
2023/04/22 00:31:19;;;;;;;9.68;5.00;;;;;;;;;;4997530;28;20189;-49
2023/04/22 00:33:45;;;;;;;6.57;4.88;;;;;;;;;;4997252;28;20268;-49
2023/04/22 00:36:11;;;;;;;7.60;4.70;;;;;;;;;;4996136;28;20187;-49
2023/04/22 00:38:37;;;;;;;6.38;4.70;;;;;;;;;;4996434;28;20772;-49
2023/04/22 00:41:04;;;;;;;7.55;4.57;;;;;;;;;;4997133;28;20830;-49
2023/04/22 00:43:30;;;;;;;8.25;4.90;;;;;;;;;;4997782;28;20285;-49
2023/04/22 00:45:57;;;;;;;7.53;4.85;;;;;;;;;;4995351;28;20260;-49
2023/04/22 00:48:24;;;;;;;7.68;4.18;;;;;;;;;;4996984;28;20219;-49
2023/04/22 00:50:50;;;;;;;6.53;4.35;;;;;;;;;;4996766;28;20184;-49
2023/04/22 00:53:16;;;;;;;7.47;4.22;;;;;;;;;;4995221;28;20205;-49
2023/04/22 00:55:42;;;;;;;10.05;4.75;;;;;;;;;;4993196;28;20232;-49
2023/04/22 00:58:09;;;;;;;5.55;4.50;;;;;;;;;;4996395;28;20301;-49
2023/04/22 01:00:35;;;;;;;7.50;3.78;;;;;;;;;;4997280;28;21083;-49
2023/04/22 01:03:01;;;;;;;4.75;3.80;;;;;;;;;;4993654;28;20316;-49
2023/04/22 01:05:30;;;;;;;7.57;4.35;;;;;;;;;;4995886;28;20193;-49
2023/04/22 01:07:56;;;;;;;6.78;3.70;;;;;;;;;;4996419;28;20247;-49
2023/04/22 01:10:23;;;;;;;7.57;4.22;;;;;;;;;;4996451;28;20483;-49
2023/04/22 01:12:49;;;;;;;4.72;3.72;;;;;;;;;;4995631;28;20185;-49
2023/04/22 01:15:15;;;;;;;5.97;3.78;;;;;;;;;;4995459;28;20181;-49
2023/04/22 01:17:41;;;;;;;7.05;3.47;;;;;;;;;;4994988;28;20181;-49
2023/04/22 01:20:09;;;;;;;6.68;4.18;;;;;;;;;;4997204;28;20220;-49
2023/04/22 01:22:36;;;;;;;8.88;4.22;;;;;;;;;;4995889;28;20184;-49
2023/04/22 01:25:02;;;;;;;4.70;3.65;;;;;;;;;;4996387;28;20213;-49
2023/04/22 01:27:28;;;;;;;6.68;3.88;;;;;;;;;;4995091;28;20217;-49
2023/04/22 01:29:54;;;;;;;5.80;3.38;;;;;;;;;;4996286;28;20272;-49
2023/04/22 01:32:20;;;;;;;8.73;4.00;;;;;;;;;;4993942;28;20181;-49
2023/04/22 01:34:46;;;;;;;4.93;3.40;;;;;;;;;;4996623;28;20196;-49
2023/04/22 01:37:12;;;;;;;8.02;3.88;;;;;;;;;;4995958;28;20199;-49
2023/04/22 01:39:38;;;;;;;6.80;4.40;;;;;;;;;;4995046;28;20640;-49
2023/04/22 01:42:04;;;;;;;6.85;3.92;;;;;;;;;;4996314;28;20181;-49
2023/04/22 01:44:30;;;;;;;5.78;3.72;;;;;;;;;;4996412;28;20213;-49
2023/04/22 01:46:56;;;;;;;8.98;3.90;;;;;;;;;;4995032;28;20203;-49
2023/04/22 01:49:22;;;;;;;6.32;4.35;;;;;;;;;;4995334;28;20256;-49
2023/04/22 01:51:48;;;;;;;9.82;4.25;;;;;;;;;;4995572;28;20184;-49
2023/04/22 01:54:14;;;;;;;6.05;4.18;;;;;;;;;;4995111;28;20580;-50
2023/04/22 01:56:42;;;;;;;5.85;3.47;;;;;;;;;;4995363;28;20189;-49
2023/04/22 01:59:08;;;;;;;9.55;3.80;;;;;;;;;;4995578;28;20185;-49
2023/04/22 02:01:34;;;;;;;5.90;3.65;;;;;;;;;;4994942;28;20231;-49
2023/04/22 02:04:00;;;;;;;6.18;3.78;;;;;;;;;;4995895;28;20213;-49
2023/04/22 02:06:26;;;;;;;6.57;4.10;;;;;;;;;;4995715;28;20177;-49
2023/04/22 02:08:52;;;;;;;8.63;4.13;;;;;;;;;;4994877;28;20567;-49
2023/04/22 02:11:18;;;;;;;7.50;3.83;;;;;;;;;;4995306;28;20196;-49
2023/04/22 02:13:44;;;;;;;5.40;3.60;;;;;;;;;;4993746;28;20538;-48
2023/04/22 02:16:10;;;;;;;6.10;3.42;;;;;;;;;;4995807;28;20203;-50
2023/04/22 02:18:36;;;;;;;7.57;3.50;;;;;;;;;;4995131;28;20351;-49
2023/04/22 02:21:02;;;;;;;6.60;3.88;;;;;;;;;;4996158;28;20186;-49
2023/04/22 02:23:28;;;;;;;7.85;3.45;;;;;;;;;;4995364;28;20211;-49
2023/04/22 02:25:54;;;;;;;7.45;3.92;;;;;;;;;;4994630;28;20317;-49
2023/04/22 02:28:20;;;;;;;6.47;3.97;;;;;;;;;;4993741;28;20203;-49
2023/04/22 02:30:46;;;;;;;9.65;4.05;;;;;;;;;;4994267;28;20188;-49
2023/04/22 02:33:12;;;;;;;6.75;3.72;;;;;;;;;;4995303;28;20185;-49
2023/04/22 02:35:38;;;;;;;10.82;3.72;;;;;;;;;;4995276;28;20216;-49
2023/04/22 02:38:04;;;;;;;7.97;3.55;;;;;;;;;;4991100;28;20239;-49
2023/04/22 02:40:30;;;;;;;5.40;3.42;;;;;;;;;;4995190;28;20193;-49
2023/04/22 02:42:56;;;;;;;5.82;3.60;;;;;;;;;;4994151;28;20268;-49
2023/04/22 02:45:22;;;;;;;6.03;3.63;;;;;;;;;;4990102;28;20189;-49
2023/04/22 02:47:48;;;;;;;7.95;3.63;;;;;;;;;;5000366;28;20269;-49
2023/04/22 02:50:14;;;;;;;7.13;3.88;;;;;;;;;;4994104;28;20244;-49
2023/04/22 02:52:39;;;;;;;7.30;3.53;;;;;;;;;;4993998;28;20613;-49
2023/04/22 02:55:06;;;;;;;6.32;3.45;;;;;;;;;;4994311;28;20196;-49
2023/04/22 02:57:31;;;;;;;8.57;3.63;;;;;;;;;;4993346;28;20786;-49
2023/04/22 02:59:57;;;;;;;4.88;3.70;;;;;;;;;;4994648;28;20209;-49
2023/04/22 03:02:23;;;;;;;9.77;4.03;;;;;;;;;;4994561;28;20189;-49
2023/04/22 03:04:51;;;;;;;7.15;3.80;;;;;;;;;;4994246;28;20468;-49
2023/04/22 03:07:16;;;;;;;5.10;3.75;;;;;;;;;;4993219;28;20195;-49
2023/04/22 03:09:42;;;;;;;5.22;3.10;;;;;;;;;;4994334;28;20552;-49
2023/04/22 03:12:08;;;;;;;6.10;3.42;;;;;;;;;;4994460;28;20216;-49
2023/04/22 03:14:34;;;;;;;5.32;3.80;;;;;;;;;;4993631;28;20263;-49
2023/04/22 03:17:00;;;;;;;6.72;3.35;;;;;;;;;;4994265;28;20296;-49
2023/04/22 03:19:26;;;;;;;6.25;3.30;;;;;;;;;;4994155;28;20784;-49
2023/04/22 03:21:52;;;;;;;5.18;3.35;;;;;;;;;;4993876;28;20208;-49
2023/04/22 03:24:18;;;;;;;5.22;3.50;;;;;;;;;;4994170;28;20269;-49
2023/04/22 03:26:44;;;;;;;8.32;4.03;;;;;;;;;;4994682;28;20189;-49
2023/04/22 03:29:10;;;;;;;4.38;3.67;;;;;;;;;;4993414;28;20272;-49
2023/04/22 03:31:36;;;;;;;6.68;3.70;;;;;;;;;;4995057;28;20271;-49
2023/04/22 03:34:02;;;;;;;9.07;3.67;;;;;;;;;;4993205;28;20172;-49
2023/04/22 03:36:28;;;;;;;6.53;3.67;;;;;;;;;;4993304;28;20189;-49
2023/04/22 03:38:54;;;;;;;5.25;3.53;;;;;;;;;;4992987;28;20527;-49
2023/04/22 03:41:20;;;;;;;7.18;3.63;;;;;;;;;;4994082;28;20204;-49
2023/04/22 03:43:46;;;;;;;5.72;3.72;;;;;;;;;;4994262;28;20660;-49
2023/04/22 03:46:12;;;;;;;6.40;3.55;;;;;;;;;;4994644;28;20216;-49
2023/04/22 03:48:38;;;;;;;5.03;3.70;;;;;;;;;;4993741;28;20208;-49
2023/04/22 03:51:04;;;;;;;6.97;4.65;;;;;;;;;;4993337;28;20243;-49
2023/04/22 03:53:29;;;;;;;5.05;3.60;;;;;;;;;;4992531;28;20193;-49
2023/04/22 03:55:55;;;;;;;5.15;3.70;;;;;;;;;;4996033;28;20204;-49
2023/04/22 03:58:21;;;;;;;7.32;3.30;;;;;;;;;;4994823;28;20185;-49
2023/04/22 04:00:47;;;;;;;7.55;3.35;;;;;;;;;;4997714;28;20220;-49
2023/04/22 04:03:13;;;;;;;7.57;3.70;;;;;;;;;;4998476;28;20319;-49
2023/04/22 04:05:39;;;;;;;6.55;3.97;;;;;;;;;;4996680;28;20375;-49
2023/04/22 04:08:05;;;;;;;4.57;3.42;;;;;;;;;;4997988;28;20264;-49
2023/04/22 04:10:31;;;;;;;6.43;3.92;;;;;;;;;;4996961;28;20185;-49
2023/04/22 04:12:57;;;;;;;5.43;3.63;;;;;;;;;;4996849;28;20491;-49
2023/04/22 04:15:23;;;;;;;5.18;3.13;;;;;;;;;;4996680;28;20177;-50
2023/04/22 04:17:49;;;;;;;4.22;3.70;;;;;;;;;;4997299;28;20486;-49
2023/04/22 04:20:15;;;;;;;7.28;3.45;;;;;;;;;;4997501;28;20216;-49
2023/04/22 04:22:42;;;;;;;7.43;3.83;;;;;;;;;;4998403;28;20460;-49
2023/04/22 04:25:09;;;;;;;6.32;3.80;;;;;;;;;;4996424;28;20272;-49
2023/04/22 04:27:34;;;;;;;6.47;3.30;;;;;;;;;;4996336;28;20277;-49
2023/04/22 04:30:03;;;;;;;5.28;3.58;;;;;;;;;;4997597;28;20260;-49
2023/04/22 04:32:33;;;;;;;5.97;3.60;;;;;;;;;;4997955;28;20173;-49
2023/04/22 04:34:59;;;;;;;6.53;3.70;;;;;;;;;;4998769;28;20195;-49
2023/04/22 04:37:25;;;;;;;5.30;3.30;;;;;;;;;;4995934;28;20189;-49
2023/04/22 04:39:51;;;;;;;5.57;3.88;;;;;;;;;;4996661;28;20208;-49
2023/04/22 04:42:17;;;;;;;7.15;3.63;;;;;;;;;;4997505;28;20191;-49
2023/04/22 04:44:43;;;;;;;6.93;3.67;;;;;;;;;;4996719;28;20280;-49
2023/04/22 04:47:09;;;;;;;4.57;3.20;;;;;;;;;;4996435;28;20227;-49
2023/04/22 04:49:38;;;;;;;7.20;4.00;;;;;;;;;;4996320;28;20188;-49
2023/04/22 04:52:04;;;;;;;5.22;3.33;;;;;;;;;;4996992;28;20191;-49
2023/04/22 04:54:30;;;;;;;7.05;3.55;;;;;;;;;;4996612;28;20259;-49
2023/04/22 04:56:56;;;;;;;5.45;3.28;;;;;;;;;;4994662;28;20565;-49
2023/04/22 04:59:22;;;;;;;5.72;3.78;;;;;;;;;;4996135;28;20213;-49
2023/04/22 05:01:48;;;;;;;4.25;3.42;;;;;;;;;;4996757;28;20496;-49
2023/04/22 05:04:14;;;;;;;4.35;3.20;;;;;;;;;;4997231;28;20177;-49
2023/04/22 05:06:40;;;;;;;6.88;3.47;;;;;;;;;;4996974;28;20186;-49
2023/04/22 05:09:06;;;;;;;4.47;3.25;;;;;;;;;;4995655;28;20533;-49
2023/04/22 05:11:32;;;;;;;4.88;3.67;;;;;;;;;;4996133;28;20172;-49
2023/04/22 05:13:59;;;;;;;7.50;3.63;;;;;;;;;;4995876;28;20422;-49
2023/04/22 05:16:25;;;;;;;5.88;3.38;;;;;;;;;;4995739;28;20189;-49
2023/04/22 05:18:51;;;;;;;5.03;3.67;;;;;;;;;;4996328;28;20204;-49
2023/04/22 05:21:17;;;;;;;6.03;3.83;;;;;;;;;;4997326;28;20260;-49
2023/04/22 05:23:43;;;;;;;5.38;3.10;;;;;;;;;;4995984;28;20173;-49
2023/04/22 05:26:09;;;;;;;5.47;3.47;;;;;;;;;;4996260;28;20196;-49
2023/04/22 05:28:35;;;;;;;4.05;3.47;;;;;;;;;;4994646;28;20192;-49
2023/04/22 05:31:01;;;;;;;6.47;3.15;;;;;;;;;;4996408;28;20498;-50
2023/04/22 05:33:27;;;;;;;7.60;3.80;;;;;;;;;;4997033;28;20269;-49
2023/04/22 05:35:52;;;;;;;6.15;3.00;;;;;;;;;;4995361;28;20211;-49
2023/04/22 05:38:19;;;;;;;4.43;3.15;;;;;;;;;;4996186;28;20180;-49
2023/04/22 05:40:45;;;;;;;6.80;3.47;;;;;;;;;;4996064;28;20173;-49
2023/04/22 05:43:10;;;;;;;5.20;3.42;;;;;;;;;;4995792;28;20197;-49
2023/04/22 05:45:36;;;;;;;6.03;3.65;;;;;;;;;;4995155;28;20284;-49
2023/04/22 05:48:02;;;;;;;4.63;3.20;;;;;;;;;;4995544;28;20208;-49
2023/04/22 05:50:28;;;;;;;9.48;3.65;;;;;;;;;;4994579;28;20181;-49
2023/04/22 05:52:54;;;;;;;7.28;3.80;;;;;;;;;;4993825;28;20517;-49
2023/04/22 05:55:20;;;;;;;8.77;3.90;;;;;;;;;;4994356;28;20263;-49
2023/04/22 05:57:46;;;;;;;7.18;3.45;;;;;;;;;;4995473;28;20236;-49
2023/04/22 06:00:12;;;;;;;5.97;3.63;;;;;;;;;;4995421;28;20245;-49
2023/04/22 06:02:38;;;;;;;9.32;3.63;;;;;;;;;;4995400;28;20216;-49
2023/04/22 06:05:04;;;;;;;7.38;3.40;;;;;;;;;;4995471;28;20235;-50
2023/04/22 06:07:30;;;;;;;10.20;3.30;;;;;;;;;;4995315;28;20611;-50
2023/04/22 06:09:56;;;;;;;5.07;3.30;;;;;;;;;;4994996;28;20200;-50
2023/04/22 06:12:22;;;;;;;8.10;3.50;;;;;;;;;;4994085;28;20224;-50
2023/04/22 06:14:48;;;;;;;4.20;3.00;;;;;;;;;;4993623;28;20186;-50
2023/04/22 06:17:14;;;;;;;6.68;3.33;;;;;;;;;;4994982;28;20185;-50
2023/04/22 06:19:40;;;;;;;12.80;3.33;;;;;;;;;;4994367;28;20205;-50
2023/04/22 06:22:06;;;;;;;12.43;3.47;;;;;;;;;;4995614;28;20255;-50
2023/04/22 06:24:31;;;;;;;4.75;3.47;;;;;;;;;;4995150;28;20201;-50
2023/04/22 06:26:57;;;;;;;4.07;3.28;;;;;;;;;;4994866;28;20434;-50
2023/04/22 06:29:24;;;;;;;7.82;3.35;;;;;;;;;;4994883;28;20201;-50
2023/04/22 06:31:49;;;;;;;5.38;3.35;;;;;;;;;;4995476;28;20197;-50
2023/04/22 06:34:15;;;;;;;7.03;3.40;;;;;;;;;;4994761;28;20264;-50
2023/04/22 06:36:43;;;;;;;8.90;3.53;;;;;;;;;;4993737;28;20192;-50
2023/04/22 06:39:09;;;;;;;5.53;3.08;;;;;;;;;;4993032;28;20822;-50
2023/04/22 06:41:35;;;;;;;7.65;3.22;;;;;;;;;;4994538;28;20181;-50
2023/04/22 06:44:01;;;;;;;9.45;3.45;;;;;;;;;;4995588;28;20228;-50
2023/04/22 06:46:27;;;;;;;5.82;3.67;;;;;;;;;;4994729;28;20191;-50
2023/04/22 06:48:53;;;;;;;6.00;2.80;;;;;;;;;;4993711;28;20181;-50
2023/04/22 06:51:19;;;;;;;4.57;3.00;;;;;;;;;;4994143;28;20272;-50
2023/04/22 06:53:45;;;;;;;5.28;3.40;;;;;;;;;;4994003;28;20599;-50
2023/04/22 06:56:11;;;;;;;4.53;3.17;;;;;;;;;;4994236;28;20197;-50
2023/04/22 06:58:37;;;;;;;3.45;2.85;;;;;;;;;;4994860;28;20315;-50
2023/04/22 07:01:03;;;;;;;5.75;3.10;;;;;;;;;;4993861;28;20239;-50
2023/04/22 07:03:29;;;;;;;7.22;3.65;;;;;;;;;;4994226;28;20177;-50
2023/04/22 07:05:55;;;;;;;4.82;2.95;;;;;;;;;;4993908;28;20181;-50
2023/04/22 07:08:21;;;;;;;10.20;3.22;;;;;;;;;;4994732;28;20186;-50
2023/04/22 07:10:47;;;;;;;5.45;2.78;;;;;;;;;;4993838;28;20223;-50
2023/04/22 07:13:12;;;;;;;6.55;2.88;;;;;;;;;;4994142;28;20267;-50
2023/04/22 07:15:38;;;;;;;4.45;3.00;;;;;;;;;;4993541;28;20533;-50
2023/04/22 07:18:04;;;;;;;4.82;3.05;;;;;;;;;;4976405;28;20181;-50
2023/04/22 07:20:30;;;;;;;4.03;2.90;;;;;;;;;;4994426;28;20599;-50
2023/04/22 07:22:56;;;;;;;5.72;3.10;;;;;;;;;;4995017;28;20607;-50
2023/04/22 07:25:22;;;;;;;4.78;2.90;;;;;;;;;;4993323;28;20173;-50
2023/04/22 07:27:48;;;;;;;4.47;2.90;;;;;;;;;;4994656;28;20181;-50
2023/04/22 07:30:14;;;;;;;5.35;2.95;;;;;;;;;;4992307;28;20221;-50
2023/04/22 07:32:40;;;;;;;5.47;2.75;;;;;;;;;;4991346;28;20545;-50
2023/04/22 07:35:06;;;;;;;7.13;2.95;;;;;;;;;;4994860;28;20200;-50
2023/04/22 07:37:32;;;;;;;4.18;2.80;;;;;;;;;;4989085;28;20196;-50
2023/04/22 07:39:58;;;;;;;3.72;3.28;;;;;;;;;;4993997;28;20216;-50
2023/04/22 07:42:24;;;;;;;3.20;2.55;;;;;;;;;;4990119;28;20207;-50
2023/04/22 07:44:50;;;;;;;4.57;3.10;;;;;;;;;;4993408;28;20188;-50
2023/04/22 07:47:16;;;;;;;4.50;2.45;;;;;;;;;;4993013;28;20188;-50
2023/04/22 07:49:42;;;;;;;9.45;3.42;;;;;;;;;;4993829;28;20235;-50
2023/04/22 07:52:08;;;;;;;5.63;2.80;;;;;;;;;;4994687;28;20251;-50
2023/04/22 07:54:34;;;;;;;6.88;2.20;;;;;;;;;;4993912;28;20552;-50
2023/04/22 07:57:00;;;;;;;5.38;2.78;;;;;;;;;;4993732;28;20193;-50
2023/04/22 07:59:26;;;;;;;8.15;2.85;;;;;;;;;;4989933;28;20194;-50
2023/04/22 08:01:52;;;;;;;4.03;2.10;;;;;;;;;;4993332;28;20185;-50
2023/04/22 08:04:20;;;;;;;8.90;2.92;;;;;;;;;;4993988;28;20208;-50
2023/04/22 08:06:45;;;;;;;7.18;2.92;;;;;;;;;;4993458;28;20232;-50
2023/04/22 08:09:11;;;;;;;3.03;2.47;;;;;;;;;;4993830;28;20217;-50
2023/04/22 08:11:37;;;;;;;4.60;2.80;;;;;;;;;;4990945;28;20181;-50
2023/04/22 08:14:03;;;;;;;7.65;3.15;;;;;;;;;;4993332;28;20196;-50
2023/04/22 08:16:29;;;;;;;8.27;3.17;;;;;;;;;;4992633;28;20605;-50
2023/04/22 08:18:56;;;;;;;4.32;2.65;;;;;;;;;;4994275;28;20212;-50
2023/04/22 08:21:22;;;;;;;5.72;2.92;;;;;;;;;;4993788;28;20180;-50
2023/04/22 08:23:48;;;;;;;4.05;2.85;;;;;;;;;;4992651;28;20173;-50
2023/04/22 08:26:15;;;;;;;3.28;2.60;;;;;;;;;;4993184;28;20710;-50
2023/04/22 08:28:42;;;;;;;3.28;2.55;;;;;;;;;;4993303;28;20181;-50
2023/04/22 08:31:09;;;;;;;6.03;2.85;;;;;;;;;;4993638;28;20185;-50
2023/04/22 08:33:35;;;;;;;5.18;2.72;;;;;;;;;;4992252;28;20181;-50
2023/04/22 08:36:02;;;;;;;5.57;2.28;;;;;;;;;;4977305;28;20185;-50
2023/04/22 08:38:28;;;;;;;3.17;2.80;;;;;;;;;;4991876;28;20236;-50
2023/04/22 08:40:57;;;;;;;4.20;2.45;;;;;;;;;;4995316;28;20220;-50
2023/04/22 08:43:25;;;;;;;4.82;2.50;;;;;;;;;;4996755;28;20181;-50
2023/04/22 08:45:51;;;;;;;5.40;2.42;;;;;;;;;;4997607;28;20181;-50
2023/04/22 08:48:18;;;;;;;3.72;2.53;;;;;;;;;;4997259;28;20185;-50
2023/04/22 08:50:46;;;;;;;4.05;2.47;;;;;;;;;;4997345;28;20208;-50
2023/04/22 08:53:12;;;;;;;5.35;2.80;;;;;;;;;;4996979;28;20203;-50
2023/04/22 08:55:39;;;;;;;5.10;2.83;;;;;;;;;;4995841;28;20284;-50
2023/04/22 08:58:05;;;;;;;4.18;2.35;;;;;;;;;;4996373;28;20169;-50
2023/04/22 09:00:33;;;;;;;6.03;2.47;;;;;;;;;;4996955;28;20263;-50
2023/04/22 09:03:01;;;;;;;6.22;2.70;;;;;;;;;;4996794;28;20599;-50
2023/04/22 09:05:27;;;;;;;4.22;2.50;;;;;;;;;;4990760;28;20177;-50
2023/04/22 09:07:54;;;;;;;4.07;2.55;;;;;;;;;;4996951;28;20173;-50
2023/04/22 09:10:19;;;;;;;5.22;2.58;;;;;;;;;;4995421;28;20213;-50
2023/04/22 09:12:46;;;;;;;4.88;2.30;;;;;;;;;;4994593;28;20220;-50
2023/04/22 09:15:12;;;;;;;5.30;2.40;;;;;;;;;;4993872;28;20209;-50
2023/04/22 09:17:38;;;;;;;5.63;2.55;;;;;;;;;;4995427;28;20185;-50
2023/04/22 09:20:05;;;;;;;4.07;2.20;;;;;;;;;;4996588;28;20215;-49
2023/04/22 09:22:43;;;;;;;5.50;2.67;;;;;;;;;;4996463;28;20173;-50
2023/04/22 09:25:16;;;;;;;4.32;2.38;;;;;;;;;;4992140;28;20227;-50
2023/04/22 09:27:42;;;;;;;3.65;2.08;;;;;;;;;;4995754;28;20252;-50
2023/04/22 09:30:08;;;;;;;4.57;2.30;;;;;;;;;;4995573;28;20696;-50
2023/04/22 09:32:34;;;;;;;3.05;2.50;;;;;;;;;;4995637;28;20201;-50
2023/04/22 09:35:01;;;;;;;3.92;2.50;;;;;;;;;;4995717;28;20217;-49
2023/04/22 09:37:27;;;;;;;2.40;2.00;;;;;;;;;;4995187;28;20476;-49
2023/04/22 09:39:53;;;;;;;4.45;2.15;;;;;;;;;;4995706;28;20552;-49
2023/04/22 09:42:20;;;;;;;2.85;2.35;;;;;;;;;;4995120;28;20576;-49
2023/04/22 09:44:47;;;;;;;3.75;2.53;;;;;;;;;;4995602;28;20185;-49
2023/04/22 09:47:13;;;;;;;4.55;2.75;;;;;;;;;;4995832;28;20177;-49
2023/04/22 09:49:39;;;;;;;3.85;2.00;;;;;;;;;;4995922;28;20266;-49
2023/04/22 09:52:05;;;;;;;3.80;2.80;;;;;;;;;;4995332;28;20181;-49
2023/04/22 09:54:31;;;;;;;2.70;2.17;;;;;;;;;;4992650;28;20192;-49
2023/04/22 09:56:57;;;;;;;4.72;2.70;;;;;;;;;;4995660;28;20224;-50
2023/04/22 09:59:24;;;;;;;4.35;2.45;;;;;;;;;;4995286;28;20209;-50
2023/04/22 10:01:51;;;;;;;4.95;2.38;;;;;;;;;;4995727;28;20263;-49
2023/04/22 10:04:20;;;;;;;4.68;2.30;;;;;;;;;;4995179;28;20181;-49
2023/04/22 10:06:46;;;;;;;6.45;2.58;;;;;;;;;;4996061;28;20177;-49
2023/04/22 10:09:14;;;;;;;4.43;2.30;;;;;;;;;;4995846;28;20197;-49
2023/04/22 10:11:40;;;;;;;4.68;2.40;;;;;;;;;;4993838;28;20236;-49
2023/04/22 10:14:09;;;;;;;3.25;2.28;;;;;;;;;;4995272;28;20216;-49
2023/04/22 10:16:35;;;;;;;4.63;2.30;;;;;;;;;;4993449;28;20185;-49
2023/04/22 10:19:04;;;;;;;4.40;2.38;;;;;;;;;;4995020;28;20581;-49
2023/04/22 10:21:31;;;;;;;3.25;2.45;;;;;;;;;;4995433;28;20242;-49
2023/04/22 10:23:57;;;;;;;3.97;2.67;;;;;;;;;;4995057;28;20224;-49
2023/04/22 10:26:42;;;;;;;3.95;2.60;;;;;;;;;;4994456;28;20195;-49
2023/04/22 10:29:09;;;;;;;3.65;2.50;;;;;;;;;;4995192;28;20267;-49
2023/04/22 10:31:38;;;;;;;3.40;2.25;;;;;;;;;;4995302;28;20208;-49
2023/04/22 10:34:14;;;;;;;3.60;2.28;;;;;;;;;;4977478;28;20231;-49
2023/04/22 10:37:15;;;;;;;4.78;2.40;;;;;;;;;;4989666;28;20193;-49
2023/04/22 10:39:41;;;;;;;3.58;2.55;;;;;;;;;;4933646;29;20206;-49
2023/04/22 10:42:09;;;;;;;3.20;2.35;;;;;;;;;;4983301;28;20199;-48
2023/04/22 10:44:45;;;;;;;2.90;2.40;;;;;;;;;;4993180;28;20573;-48
2023/04/22 10:47:11;;;;;;;3.85;2.20;;;;;;;;;;4994067;28;20239;-48
2023/04/22 10:49:36;;;;;;;3.25;2.20;;;;;;;;;;4994971;28;20181;-48
2023/04/22 10:52:04;;;;;;;4.53;2.60;;;;;;;;;;4993552;28;20500;-48
2023/04/22 10:54:35;;;;;;;2.10;1.90;;;;;;;;;;4994969;28;20200;-48
2023/04/22 10:57:01;;;;;;;2.92;2.33;;;;;;;;;;4989747;28;20188;-48
2023/04/22 10:59:27;;;;;;;3.40;2.20;;;;;;;;;;4993350;28;20275;-48
2023/04/22 11:01:53;;;;;;;8.93;2.75;;;;;;;;;;4993422;28;20197;-49
2023/04/22 11:04:21;;;;;;;2.35;1.90;;;;;;;;;;4994655;28;20584;-49
2023/04/22 11:07:07;;;;;;;3.30;2.10;;;;;;;;;;4993686;28;20652;-49
2023/04/22 11:09:33;;;;;;;4.95;2.47;;;;;;;;;;4993809;28;20204;-48
2023/04/22 11:12:18;;;;;;;4.75;2.42;;;;;;;;;;4993343;28;20177;-49
2023/04/22 11:14:44;;;;;;;2.58;2.00;;;;;;;;;;4994120;28;20191;-49
2023/04/22 11:17:10;;;;;;;4.45;2.38;;;;;;;;;;4990708;28;20193;-49
2023/04/22 11:19:36;;;;;;;4.25;2.28;;;;;;;;;;4987695;28;20208;-49
2023/04/22 11:22:02;;;;;;;3.47;2.10;;;;;;;;;;4993688;28;20244;-49
2023/04/22 11:24:28;;;;;;;3.60;2.40;;;;;;;;;;4994268;28;20188;-48
2023/04/22 11:26:55;;;;;;;3.40;2.10;;;;;;;;;;4994008;28;20221;-48
2023/04/22 11:29:21;;;;;;;3.88;1.90;;;;;;;;;;4994134;28;20219;-48
2023/04/22 11:31:48;;;;;;;3.13;2.08;;;;;;;;;;4993645;28;20213;-48
2023/04/22 11:34:14;;;;;;;6.68;2.38;;;;;;;;;;4993538;28;20196;-49
2023/04/22 11:36:43;;;;;;;3.40;2.05;;;;;;;;;;4992868;28;20215;-49
2023/04/22 11:39:13;;;;;;;4.75;2.10;;;;;;;;;;4994379;28;20266;-49
2023/04/22 11:41:40;;;;;;;3.22;1.80;;;;;;;;;;4986295;28;20191;-49
2023/04/22 11:44:06;;;;;;;2.40;2.00;;;;;;;;;;4994130;28;20540;-49
2023/04/22 11:46:38;;;;;;;5.50;2.78;;;;;;;;;;4992385;28;20189;-49
2023/04/22 11:49:13;;;;;;;3.47;1.83;;;;;;;;;;4994443;28;20164;-49
2023/04/22 11:51:55;;;;;;;4.03;2.42;;;;;;;;;;4980984;28;20189;-49
2023/04/22 11:54:30;;;;;;;11.40;4.95;;;;;;;;;;4993345;28;20192;-49
2023/04/22 11:56:56;;;;;;;9.60;3.70;;;;;;;;;;4993514;28;20607;-49
2023/04/22 11:59:25;;;;;;;7.90;3.30;;;;;;;;;;4993088;28;20197;-49
2023/04/22 12:01:51;;;;;;;5.43;3.05;;;;;;;;;;4993756;28;20600;-49
2023/04/22 12:04:20;;;;;;;4.15;2.78;;;;;;;;;;4994126;28;20462;-49
2023/04/22 12:06:46;;;;;;;5.82;2.75;;;;;;;;;;4992549;28;20236;-49
2023/04/22 12:09:12;;;;;;;4.55;2.78;;;;;;;;;;4994231;28;20537;-49
2023/04/22 12:11:38;;;;;;;8.18;3.33;;;;;;;;;;4991424;28;20189;-49
2023/04/22 12:14:05;;;;;;;5.97;3.42;;;;;;;;;;4993514;28;20185;-49
2023/04/22 12:16:39;;;;;;;8.27;3.80;;;;;;;;;;4995034;28;20197;-49
2023/04/22 12:19:05;;;;;;;7.25;2.85;;;;;;;;;;4996812;28;20213;-49
2023/04/22 12:21:31;;;;;;;6.13;3.22;;;;;;;;;;4998160;28;20199;-49
2023/04/22 12:23:58;;;;;;;12.57;3.45;;;;;;;;;;4996678;28;20185;-50
2023/04/22 12:26:25;;;;;;;6.55;3.22;;;;;;;;;;4996944;28;20181;-49
2023/04/22 12:28:51;;;;;;;5.60;2.97;;;;;;;;;;4996698;28;20189;-50
2023/04/22 12:31:17;;;;;;;6.20;3.05;;;;;;;;;;4996857;28;20443;-49
2023/04/22 12:33:44;;;;;;;5.72;2.80;;;;;;;;;;4996833;28;20200;-49
2023/04/22 12:36:10;;;;;;;4.30;2.65;;;;;;;;;;4997606;28;20184;-49
2023/04/22 12:38:36;;;;;;;4.50;2.50;;;;;;;;;;4995419;28;20189;-50
2023/04/22 12:41:03;;;;;;;7.10;3.00;;;;;;;;;;4997583;28;20181;-49
2023/04/22 12:43:31;;;;;;;8.98;3.00;;;;;;;;;;4996710;28;20185;-49
2023/04/22 12:45:57;;;;;;;5.10;2.15;;;;;;;;;;4996364;28;20451;-49
2023/04/22 12:48:22;;;;;;;3.40;2.45;;;;;;;;;;4997159;28;20189;-49
2023/04/22 12:50:48;;;;;;;4.72;2.40;;;;;;;;;;4998216;28;20174;-49
2023/04/22 12:53:15;;;;;;;5.97;2.78;;;;;;;;;;4993156;28;20780;-49
2023/04/22 12:55:41;;;;;;;5.82;2.95;;;;;;;;;;4995794;28;20279;-49
2023/04/22 12:58:07;;;;;;;4.78;2.25;;;;;;;;;;4996508;28;20268;-49
2023/04/22 13:00:33;;;;;;;5.43;2.42;;;;;;;;;;4995667;28;20236;-49
2023/04/22 13:02:59;;;;;;;3.25;2.15;;;;;;;;;;4996585;28;20197;-49
2023/04/22 13:05:25;;;;;;;4.97;2.42;;;;;;;;;;4996165;28;20181;-50
2023/04/22 13:07:52;;;;;;;6.90;3.10;;;;;;;;;;4995023;28;20184;-49
2023/04/22 13:10:19;;;;;;;5.30;2.60;;;;;;;;;;4995851;28;20255;-49
2023/04/22 13:12:45;;;;;;;3.20;2.20;;;;;;;;;;4995489;28;20177;-49
2023/04/22 13:15:11;;;;;;;3.85;2.30;;;;;;;;;;4995838;28;20185;-49
2023/04/22 13:17:37;;;;;;;3.05;2.35;;;;;;;;;;4995866;28;20256;-49
2023/04/22 13:20:05;;;;;;;3.53;1.98;;;;;;;;;;4996562;28;20576;-49
2023/04/22 13:22:30;;;;;;;2.05;1.90;;;;;;;;;;4997186;28;20212;-49
2023/04/22 13:24:56;;;;;;;4.18;2.03;;;;;;;;;;4996346;28;20181;-49
2023/04/22 13:27:22;;;;;;;5.75;2.63;;;;;;;;;;4995411;28;20561;-49
2023/04/22 13:29:48;;;;;;;4.68;2.30;;;;;;;;;;4994851;28;20205;-49
2023/04/22 13:32:14;;;;;;;5.22;2.70;;;;;;;;;;4996986;28;20181;-49
2023/04/22 13:34:40;;;;;;;3.30;2.00;;;;;;;;;;4995804;28;20271;-49
2023/04/22 13:37:07;;;;;;;5.05;2.22;;;;;;;;;;4996443;28;20200;-49
2023/04/22 13:39:32;;;;;;;6.65;1.95;;;;;;;;;;4995969;28;20216;-49
2023/04/22 13:41:59;;;;;;;1.83;1.52;;;;;;;;;;4996156;28;20277;-50
2023/04/22 13:44:24;;;;;;;2.35;2.05;;;;;;;;;;4995453;28;20199;-49
2023/04/22 13:46:50;;;;;;;2.40;1.65;;;;;;;;;;4995064;28;20185;-50
2023/04/22 13:49:16;;;;;;;2.38;1.48;;;;;;;;;;4995009;28;20189;-49
2023/04/22 13:51:42;;;;;;;2.38;1.73;;;;;;;;;;4996698;28;20189;-49
2023/04/22 13:54:08;;;;;;;3.10;1.63;;;;;;;;;;4995538;28;20291;-50
2023/04/22 13:56:34;;;;;;;2.60;1.50;;;;;;;;;;4995334;28;20201;-49
2023/04/22 13:59:00;;;;;;;4.07;1.50;;;;;;;;;;4995576;28;20208;-49
2023/04/22 14:01:26;;;;;;;1.80;1.60;;;;;;;;;;4995377;28;20189;-50
2023/04/22 14:03:52;;;;;;;2.13;1.58;;;;;;;;;;4995843;28;20185;-49
2023/04/22 14:06:19;;;;;;;1.95;1.45;;;;;;;;;;4995028;28;20196;-50
2023/04/22 14:08:45;;;;;;;1.55;1.30;;;;;;;;;;4995000;28;20188;-49
2023/04/22 14:11:11;;;;;;;2.33;1.52;;;;;;;;;;4996218;28;20181;-49
2023/04/22 14:13:37;;;;;;;4.05;1.60;;;;;;;;;;4993794;28;20185;-49
2023/04/22 14:16:06;;;;;;;3.58;1.27;;;;;;;;;;4995126;28;20204;-49
2023/04/22 14:18:35;;;;;;;2.33;1.30;;;;;;;;;;4993863;28;20178;-50
2023/04/22 14:21:00;;;;;;;1.73;1.48;;;;;;;;;;4990631;28;20192;-49
2023/04/22 14:23:26;;;;;;;2.28;1.40;;;;;;;;;;4995578;28;20185;-49
2023/04/22 14:25:52;;;;;;;1.58;1.48;;;;;;;;;;4993959;28;20216;-50
2023/04/22 14:28:18;;;;;;;3.20;1.65;;;;;;;;;;4993671;28;20232;-49
2023/04/22 14:30:44;;;;;;;1.80;1.65;;;;;;;;;;4994817;28;20227;-50
2023/04/22 14:33:11;;;;;;;2.20;1.67;;;;;;;;;;4994860;28;20188;-50
2023/04/22 14:35:37;;;;;;;9.07;4.95;;;;;;;;;;4993538;28;21258;-50
2023/04/22 14:38:05;;;;;;;13.20;7.65;;;;;;;;;;4993549;28;20177;-50
2023/04/22 14:40:30;;;;;;;41.55;19.95;;;;;;;;;;4994243;28;20440;-49